Time,TemperatureF,DewpointF,PressureIn,WindDirection,WindDirectionDegrees,WindSpeedMPH,WindSpeedGustMPH,Humidity,HourlyPrecipIn,Conditions,Clouds,dailyrainin,SoftwareType,DateUTC
2013-03-03 00:02:00,29.0,26.0,-100.00,ESE,109,0.0,2.0,87,0.00,,,0.05,,2013-03-03 06:02:00,
2013-03-03 00:11:00,29.0,26.0,-100.00,ESE,109,0.0,2.0,87,0.00,,,0.05,,2013-03-03 06:11:00,
2013-03-03 00:21:00,29.0,26.0,-100.00,NNW,337,0.0,2.0,87,0.00,,,0.05,,2013-03-03 06:21:00,
2013-03-03 00:31:00,29.0,26.0,32.65,WNW,293,0.0,4.0,87,0.00,,,0.05,,2013-03-03 06:31:00,
2013-03-03 00:42:00,29.0,26.0,32.65,WNW,293,0.0,4.0,87,0.00,,,0.05,,2013-03-03 06:42:00,
2013-03-03 00:52:00,29.0,26.0,4.30,West,270,0.0,6.0,87,0.00,,,0.05,,2013-03-03 06:52:00,
2013-03-03 01:01:00,29.0,26.0,3.30,NW,318,0.0,2.0,87,0.00,,,0.05,,2013-03-03 07:01:00,
2013-03-03 01:11:00,29.0,26.0,3.30,NW,318,0.0,2.0,87,0.00,,,0.05,,2013-03-03 07:11:00,
2013-03-03 01:21:00,29.0,25.0,18.44,WNW,285,0.0,5.0,86,0.00,,,0.05,,2013-03-03 07:21:00,
2013-03-03 01:31:00,29.0,26.0,3.30,SW,229,0.0,3.0,87,0.00,,,0.05,,2013-03-03 07:31:00,
2013-03-03 01:42:00,29.0,26.0,3.30,SW,229,0.0,3.0,87,0.00,,,0.05,,2013-03-03 07:42:00,
2013-03-03 01:52:00,29.0,25.0,3.30,North,5,0.0,4.0,86,0.00,,,0.05,,2013-03-03 07:52:00,
2013-03-03 02:01:00,29.0,25.0,3.30,West,261,1.0,5.0,86,0.00,,,0.05,,2013-03-03 08:01:00,
2013-03-03 02:11:00,29.0,25.0,3.30,West,261,1.0,5.0,86,0.00,,,0.05,,2013-03-03 08:11:00,
2013-03-03 02:21:00,29.0,25.0,3.30,SSE,167,0.0,3.0,86,0.00,,,0.05,,2013-03-03 08:21:00,
2013-03-03 02:31:00,28.0,24.0,3.30,ENE,63,0.0,3.0,86,0.00,,,0.05,,2013-03-03 08:31:00,
2013-03-03 02:41:00,28.0,24.0,3.30,ENE,63,0.0,3.0,86,0.00,,,0.05,,2013-03-03 08:41:00,
2013-03-03 02:54:00,28.0,24.0,3.30,WSW,245,0.0,1.0,86,0.00,,,0.05,,2013-03-03 08:54:00,
2013-03-03 03:01:00,28.0,24.0,3.30,WSW,243,0.0,3.0,86,0.00,,,0.05,,2013-03-03 09:01:00,
2013-03-03 03:11:00,28.0,24.0,3.30,WSW,243,0.0,3.0,86,0.00,,,0.05,,2013-03-03 09:11:00,
2013-03-03 03:21:00,28.0,24.0,3.30,WSW,248,0.0,3.0,86,0.00,,,0.05,,2013-03-03 09:21:00,
2013-03-03 03:32:00,28.0,24.0,3.30,SW,236,0.0,2.0,86,0.00,,,0.05,,2013-03-03 09:32:00,
2013-03-03 03:41:00,28.0,24.0,3.30,SW,236,0.0,2.0,86,0.00,,,0.05,,2013-03-03 09:41:00,
2013-03-03 03:52:00,27.0,23.0,3.30,WSW,250,0.0,3.0,86,0.00,,,0.05,,2013-03-03 09:52:00,
2013-03-03 04:01:00,27.0,23.0,3.30,SSE,159,0.0,1.0,86,0.00,,,0.05,,2013-03-03 10:01:00,
2013-03-03 04:11:00,27.0,23.0,3.30,SSE,159,0.0,1.0,86,0.00,,,0.05,,2013-03-03 10:11:00,
2013-03-03 04:21:00,27.0,23.0,3.30,SSW,196,0.0,2.0,86,0.00,,,0.05,,2013-03-03 10:21:00,
2013-03-03 04:32:00,28.0,24.0,3.30,WSW,246,0.0,2.0,86,0.00,,,0.05,,2013-03-03 10:32:00,
2013-03-03 04:42:00,28.0,24.0,3.30,WSW,246,0.0,2.0,86,0.00,,,0.05,,2013-03-03 10:42:00,
2013-03-03 04:52:00,27.0,23.0,-100.00,ENE,74,0.0,2.0,86,0.00,,,0.05,,2013-03-03 10:52:00,
2013-03-03 05:01:00,27.0,23.0,25.53,ENE,71,0.0,2.0,86,0.00,,,0.05,,2013-03-03 11:01:00,
2013-03-03 05:11:00,27.0,23.0,25.53,ENE,71,0.0,2.0,86,0.00,,,0.05,,2013-03-03 11:11:00,
2013-03-03 05:21:00,27.0,23.0,26.98,West,263,0.0,7.0,86,0.00,,,0.05,,2013-03-03 11:21:00,
2013-03-03 05:32:00,27.0,23.0,4.70,West,260,0.0,4.0,86,0.00,,,0.05,,2013-03-03 11:32:00,
2013-03-03 05:42:00,27.0,23.0,4.70,West,260,0.0,4.0,86,0.00,,,0.05,,2013-03-03 11:42:00,
2013-03-03 05:52:00,26.0,22.0,5.87,SW,214,0.0,2.0,86,0.00,,,0.05,,2013-03-03 11:52:00,
2013-03-03 06:01:00,26.0,22.0,3.77,SW,214,0.0,2.0,86,0.00,,,0.05,,2013-03-03 12:01:00,
2013-03-03 06:11:00,26.0,22.0,3.77,SW,214,0.0,2.0,86,0.00,,,0.05,,2013-03-03 12:11:00,
2013-03-03 06:21:00,25.0,21.0,25.85,West,275,0.0,4.0,86,0.00,,,0.05,,2013-03-03 12:21:00,
2013-03-03 06:32:00,25.0,21.0,18.36,West,267,0.0,2.0,86,0.00,,,0.05,,2013-03-03 12:32:00,
2013-03-03 06:42:00,25.0,21.0,18.36,West,267,0.0,2.0,86,0.00,,,0.05,,2013-03-03 12:42:00,
2013-03-03 06:53:00,25.0,21.0,-100.00,SSW,210,0.0,2.0,86,0.00,,,0.05,,2013-03-03 12:53:00,
2013-03-03 07:01:00,25.0,21.0,-100.00,SSW,209,0.0,2.0,86,0.00,,,0.05,,2013-03-03 13:01:00,
2013-03-03 07:11:00,25.0,21.0,-100.00,SSW,209,0.0,2.0,86,0.00,,,0.05,,2013-03-03 13:11:00,
2013-03-03 07:21:00,25.0,21.0,-100.00,West,273,1.0,3.0,86,0.00,,,0.05,,2013-03-03 13:21:00,
2013-03-03 07:32:00,26.0,22.0,13.69,WNW,284,0.0,6.0,85,0.00,,,0.05,,2013-03-03 13:32:00,
2013-03-03 07:42:00,26.0,22.0,13.69,WNW,284,0.0,6.0,85,0.00,,,0.05,,2013-03-03 13:42:00,
2013-03-03 07:52:00,27.0,23.0,-100.00,WSW,240,0.0,3.0,83,0.00,,,0.05,,2013-03-03 13:52:00,
2013-03-03 08:02:00,28.0,24.0,10.76,WNW,289,0.0,5.0,83,0.00,,,0.05,,2013-03-03 14:02:00,
2013-03-03 08:11:00,28.0,24.0,10.76,WNW,289,0.0,5.0,83,0.00,,,0.05,,2013-03-03 14:11:00,
2013-03-03 08:21:00,30.0,24.0,-100.00,West,265,0.0,4.0,78,0.00,,,0.05,,2013-03-03 14:21:00,
2013-03-03 08:32:00,30.0,24.0,12.77,ENE,61,0.0,3.0,78,0.00,,,0.05,,2013-03-03 14:32:00,
2013-03-03 08:42:00,30.0,24.0,12.77,ENE,61,0.0,3.0,78,0.00,,,0.05,,2013-03-03 14:42:00,
2013-03-03 08:52:00,32.0,25.0,-100.00,West,262,0.0,7.0,75,0.01,,,0.06,,2013-03-03 14:52:00,
2013-03-03 09:01:00,32.0,24.0,-100.00,West,275,1.0,5.0,72,0.01,,,0.06,,2013-03-03 15:01:00,
2013-03-03 09:11:00,32.0,24.0,-100.00,West,275,1.0,5.0,72,0.01,,,0.06,,2013-03-03 15:11:00,
2013-03-03 09:22:00,32.0,23.0,-100.00,NE,52,1.0,9.0,69,0.01,,,0.06,,2013-03-03 15:22:00,
2013-03-03 09:32:00,33.0,26.0,3.42,SSW,202,0.0,3.0,74,0.00,,,0.06,,2013-03-03 15:32:00,
2013-03-03 09:42:00,33.0,26.0,3.42,SSW,202,0.0,3.0,74,0.00,,,0.06,,2013-03-03 15:42:00,
2013-03-03 09:52:00,34.0,24.0,18.69,ESE,106,0.0,5.0,67,0.00,,,0.06,,2013-03-03 15:52:00,
2013-03-03 10:01:00,33.0,22.0,2.36,WNW,286,2.0,8.0,64,0.00,,,0.06,,2013-03-03 16:01:00,
2013-03-03 10:12:00,33.0,22.0,2.36,WNW,286,2.0,8.0,64,0.00,,,0.06,,2013-03-03 16:12:00,
2013-03-03 10:21:00,34.0,26.0,3.30,North,351,1.0,7.0,72,0.00,,,0.04,,2013-03-03 16:21:00,
2013-03-03 10:31:00,34.0,23.0,3.30,WNW,292,3.0,7.0,65,0.00,,,0.04,,2013-03-03 16:31:00,
2013-03-03 10:42:00,34.0,23.0,3.30,WNW,292,3.0,7.0,65,0.00,,,0.04,,2013-03-03 16:42:00,
2013-03-03 10:52:00,35.0,24.0,3.30,North,349,1.0,8.0,65,0.00,,,0.04,,2013-03-03 16:52:00,
2013-03-03 11:01:00,36.0,23.0,3.30,West,277,1.0,5.0,60,0.00,,,0.04,,2013-03-03 17:01:00,
2013-03-03 11:11:00,38.0,25.0,3.30,WNW,290,2.0,7.0,58,0.00,,,0.04,,2013-03-03 17:11:00,
2013-03-03 11:22:00,38.0,25.0,3.30,WNW,290,2.0,7.0,58,0.00,,,0.04,,2013-03-03 17:22:00,
2013-03-03 11:32:00,37.0,25.0,3.30,WSW,254,1.0,12.0,61,0.00,,,0.04,,2013-03-03 17:32:00,
2013-03-03 11:42:00,37.0,25.0,3.30,WSW,254,1.0,12.0,61,0.00,,,0.04,,2013-03-03 17:42:00,
2013-03-03 11:52:00,37.0,24.0,3.30,ENE,67,1.0,6.0,58,0.00,,,0.04,,2013-03-03 17:52:00,
2013-03-03 12:01:00,39.0,24.0,3.29,WNW,298,2.0,7.0,55,0.00,,,0.04,,2013-03-03 18:01:00,
2013-03-03 12:11:00,39.0,24.0,3.29,WNW,298,2.0,7.0,55,0.00,,,0.04,,2013-03-03 18:11:00,
2013-03-03 12:21:00,38.0,22.0,16.11,WSW,247,3.0,10.0,53,0.00,,,0.03,,2013-03-03 18:21:00,
2013-03-03 12:32:00,39.0,23.0,19.79,WNW,289,3.0,8.0,53,0.00,,,0.03,,2013-03-03 18:32:00,
2013-03-03 12:42:00,39.0,23.0,19.79,WNW,289,3.0,8.0,53,0.00,,,0.03,,2013-03-03 18:42:00,
2013-03-03 12:52:00,41.0,26.0,3.30,NE,55,1.0,10.0,55,0.00,,,0.03,,2013-03-03 18:52:00,
2013-03-03 13:01:00,42.0,24.0,3.30,WSW,254,3.0,6.0,48,0.00,,,0.03,,2013-03-03 19:01:00,
2013-03-03 13:11:00,42.0,24.0,3.30,WSW,254,3.0,6.0,48,0.00,,,0.03,,2013-03-03 19:11:00,
2013-03-03 13:21:00,41.0,22.0,17.78,West,273,4.0,9.0,47,0.00,,,0.03,,2013-03-03 19:21:00,
2013-03-03 13:32:00,42.0,24.0,31.61,SW,214,4.0,10.0,48,0.00,,,0.03,,2013-03-03 19:32:00,
2013-03-03 13:42:00,42.0,24.0,31.61,SW,214,4.0,10.0,48,0.00,,,0.03,,2013-03-03 19:42:00,
2013-03-03 13:52:00,45.0,27.0,31.59,North,355,0.0,4.0,50,0.00,,,0.03,,2013-03-03 19:52:00,
2013-03-03 14:01:00,42.0,22.0,1.43,WSW,246,3.0,7.0,44,0.00,,,0.03,,2013-03-03 20:01:00,
2013-03-03 14:11:00,42.0,22.0,1.43,WSW,246,3.0,7.0,44,0.00,,,0.03,,2013-03-03 20:11:00,
2013-03-03 14:21:00,43.0,22.0,32.37,WNW,290,4.0,10.0,43,0.00,,,0.02,,2013-03-03 20:21:00,
2013-03-03 14:32:00,43.0,22.0,32.72,WNW,299,2.0,7.0,43,0.00,,,0.02,,2013-03-03 20:32:00,
2013-03-03 14:42:00,43.0,22.0,32.72,WNW,299,2.0,7.0,43,0.00,,,0.02,,2013-03-03 20:42:00,
2013-03-03 14:53:00,43.0,21.0,-100.00,NW,309,3.0,12.0,41,0.00,,,0.02,,2013-03-03 20:53:00,
2013-03-03 15:01:00,45.0,24.0,4.71,ENE,68,2.0,10.0,44,0.00,,,0.02,,2013-03-03 21:01:00,
2013-03-03 15:11:00,45.0,24.0,4.71,ENE,68,2.0,10.0,44,0.00,,,0.02,,2013-03-03 21:11:00,
2013-03-03 15:22:00,45.0,23.0,12.76,ENE,74,2.0,7.0,42,0.00,,,0.01,,2013-03-03 21:22:00,
2013-03-03 15:32:00,44.0,21.0,26.99,WNW,284,1.0,6.0,40,0.00,,,0.01,,2013-03-03 21:32:00,
2013-03-03 15:42:00,44.0,21.0,26.99,WNW,284,1.0,6.0,40,0.00,,,0.01,,2013-03-03 21:42:00,
2013-03-03 15:52:00,44.0,21.0,-100.00,West,271,3.0,5.0,40,0.00,,,0.01,,2013-03-03 21:52:00,
2013-03-03 16:01:00,44.0,21.0,10.93,NNW,344,2.0,4.0,40,0.00,,,0.01,,2013-03-03 22:01:00,
2013-03-03 16:11:00,44.0,21.0,10.93,NNW,344,2.0,4.0,40,0.00,,,0.01,,2013-03-03 22:11:00,
2013-03-03 16:22:00,44.0,23.0,-100.00,WNW,283,1.0,9.0,44,0.00,,,0.01,,2013-03-03 22:22:00,
2013-03-03 16:32:00,45.0,22.0,9.94,WNW,296,1.0,9.0,40,0.00,,,0.01,,2013-03-03 22:32:00,
2013-03-03 16:42:00,45.0,22.0,9.94,WNW,296,1.0,9.0,40,0.00,,,0.01,,2013-03-03 22:42:00,
2013-03-03 16:52:00,43.0,21.0,17.09,WNW,287,1.0,4.0,41,0.00,,,0.01,,2013-03-03 22:52:00,
2013-03-03 17:01:00,42.0,21.0,19.92,West,259,2.0,5.0,42,0.00,,,0.01,,2013-03-03 23:01:00,
2013-03-03 17:11:00,42.0,21.0,19.92,West,259,2.0,5.0,42,0.00,,,0.01,,2013-03-03 23:11:00,
2013-03-03 17:21:00,42.0,21.0,16.55,NW,321,0.0,2.0,43,0.00,,,0.01,,2013-03-03 23:21:00,
2013-03-03 17:31:00,42.0,21.0,2.46,NW,313,0.0,1.0,43,0.00,,,0.01,,2013-03-03 23:31:00,
2013-03-03 17:42:00,42.0,21.0,2.46,NW,313,0.0,1.0,43,0.00,,,0.01,,2013-03-03 23:42:00,
2013-03-03 17:52:00,41.0,23.0,-100.00,NW,313,0.0,1.0,48,0.00,,,0.01,,2013-03-03 23:52:00,
2013-03-03 18:01:00,40.0,22.0,18.45,NW,313,0.0,0.0,49,0.00,,,0.01,,2013-03-04 00:01:00,
2013-03-03 18:11:00,40.0,22.0,18.45,NW,313,0.0,0.0,49,0.00,,,0.01,,2013-03-04 00:11:00,
2013-03-03 18:21:00,38.0,22.0,-100.00,NW,313,0.0,0.0,52,0.00,,,0.01,,2013-03-04 00:21:00,
2013-03-03 18:32:00,37.0,22.0,-100.00,NW,313,0.0,0.0,54,0.00,,,0.01,,2013-03-04 00:32:00,
2013-03-03 18:42:00,37.0,22.0,-100.00,NW,313,0.0,0.0,54,0.00,,,0.01,,2013-03-04 00:42:00,
2013-03-03 18:52:00,36.0,22.0,-100.00,NW,313,0.0,0.0,56,0.00,,,0.01,,2013-03-04 00:52:00,
2013-03-03 19:01:00,34.0,20.0,-100.00,NW,313,0.0,0.0,57,0.00,,,0.01,,2013-03-04 01:01:00,
2013-03-03 19:11:00,34.0,20.0,-100.00,NW,313,0.0,0.0,57,0.00,,,0.01,,2013-03-04 01:11:00,
2013-03-03 19:21:00,34.0,20.0,24.84,NW,313,0.0,0.0,56,0.00,,,0.01,,2013-03-04 01:21:00,
2013-03-03 19:32:00,33.0,21.0,32.03,NW,313,0.0,0.0,60,0.00,,,0.01,,2013-03-04 01:32:00,
2013-03-03 19:42:00,33.0,21.0,32.03,NW,313,0.0,0.0,60,0.00,,,0.01,,2013-03-04 01:42:00,
2013-03-03 19:52:00,32.0,20.0,12.83,NW,313,0.0,0.0,62,0.00,,,0.01,,2013-03-04 01:52:00,
2013-03-03 20:01:00,32.0,22.0,-100.00,NW,313,0.0,0.0,65,0.00,,,0.01,,2013-03-04 02:01:00,
2013-03-03 20:11:00,32.0,22.0,-100.00,NW,313,0.0,0.0,65,0.00,,,0.01,,2013-03-04 02:11:00,
2013-03-03 20:22:00,31.0,21.0,-100.00,NW,313,0.0,0.0,65,0.00,,,0.01,,2013-03-04 02:22:00,
2013-03-03 20:32:00,31.0,22.0,-100.00,NW,313,0.0,0.0,68,0.00,,,0.01,,2013-03-04 02:32:00,
2013-03-03 20:42:00,31.0,22.0,-100.00,NW,313,0.0,0.0,68,0.00,,,0.01,,2013-03-04 02:42:00,
2013-03-03 20:52:00,30.0,21.0,24.27,NW,313,0.0,0.0,70,0.00,,,0.01,,2013-03-04 02:52:00,
2013-03-03 21:01:00,30.0,21.0,-100.00,NW,313,0.0,0.0,69,0.00,,,0.01,,2013-03-04 03:01:00,
2013-03-03 21:11:00,30.0,21.0,-100.00,NW,313,0.0,0.0,69,0.00,,,0.01,,2013-03-04 03:11:00,
2013-03-03 21:21:00,30.0,22.0,-100.00,NW,313,0.0,0.0,71,0.00,,,0.01,,2013-03-04 03:21:00,
2013-03-03 21:32:00,29.0,21.0,29.82,NW,313,0.0,0.0,71,0.00,,,0.01,,2013-03-04 03:32:00,
2013-03-03 21:42:00,29.0,21.0,-100.00,NW,313,0.0,0.0,73,0.00,,,0.01,,2013-03-04 03:42:00,
2013-03-03 21:52:00,29.0,21.0,-100.00,NW,313,0.0,0.0,73,0.00,,,0.01,,2013-03-04 03:52:00,
2013-03-03 22:01:00,29.0,22.0,3.18,NW,313,0.0,0.0,74,0.00,,,0.01,,2013-03-04 04:01:00,
2013-03-03 22:11:00,29.0,22.0,3.18,NW,313,0.0,0.0,74,0.00,,,0.01,,2013-03-04 04:11:00,
2013-03-03 22:22:00,29.0,22.0,-100.00,NW,313,0.0,0.0,74,0.00,,,0.01,,2013-03-04 04:22:00,
2013-03-03 22:32:00,28.0,20.0,-100.00,NW,313,0.0,0.0,73,0.00,,,0.01,,2013-03-04 04:32:00,
2013-03-03 22:42:00,28.0,20.0,-100.00,NW,313,0.0,0.0,73,0.00,,,0.01,,2013-03-04 04:42:00,
2013-03-03 22:52:00,28.0,21.0,-100.00,NW,313,0.0,0.0,75,0.00,,,0.01,,2013-03-04 04:52:00,
2013-03-03 23:01:00,28.0,21.0,-100.00,NW,313,0.0,0.0,75,0.00,,,0.01,,2013-03-04 05:01:00,
2013-03-03 23:11:00,28.0,21.0,-100.00,NW,313,0.0,0.0,75,0.00,,,0.01,,2013-03-04 05:11:00,
2013-03-03 23:22:00,28.0,21.0,-100.00,NW,313,0.0,0.0,75,0.00,,,0.01,,2013-03-04 05:22:00,
2013-03-03 23:31:00,28.0,21.0,-100.00,NW,313,0.0,0.0,74,0.00,,,0.01,,2013-03-04 05:31:00,
2013-03-03 23:42:00,28.0,21.0,-100.00,NW,313,0.0,0.0,74,0.00,,,0.01,,2013-03-04 05:42:00,
2013-03-03 23:52:00,28.0,21.0,-100.00,NW,313,0.0,0.0,76,0.00,,,0.01,,2013-03-04 05:52:00,